Historyczne dane pomiarowe

Dodano dane terminowe – wersja testowa.

Dane z okresu 1951-2018

Wersja bazy: 1.29 [2019-01-10, lista zmian], aktualizacja planowana na 2019-02-07

Dane meteo z obszaru Polski uzyskane na podstawie danych udostępnionych przez Instytut Meteorologii i Gospodarki Wodnej – Państwowy Instytut Badawczy.

 

Wybierz Datę:    

       

TemperaturaWilgotnośćWiatrCiśnienieOpadyŚniegCzas trwania zjawisk
 Stacja t tx tn tng RH VA  wxwx mslp ppp RRR   cm mm wxwxwxwxwxwxwx
1990-12-13 0.8 2.2 -0.6 -1.7 97.8- 7.3 3.7---- 0.7------------
1990-12-14 0.3 0.8 -0.3 -0.5 99.0- 8.0 1.3---- 0.0------------
1990-12-15 0.5 1.5 -0.3 -0.6 96.5- 8.0 4.7---- 0.5------------
1990-12-16 -1.1 0.7 -1.5 -1.5 97.3- 8.0 2.7---- 3.0------------
1990-12-17 -1.4 -0.5 -1.8 -2.5 94.8- 8.0 2.3---- 0.2-- 5---------
1990-12-18 -1.8 -1.4 -2.0 -3.4 93.8- 7.7 3.7---- 0.2-- 6---------
1990-12-19 -2.0 -0.8 -3.1 -3.5 91.0- 6.7 1.7---- 0.3-- 6---------
1990-12-20 -2.2 -1.0 -4.3 -9.2 94.5- 8.0 1.7---- 0.0-- 7---------
1990-12-21 -3.4 -0.6 -8.0-10.8 87.0- 6.3 2.7---- 2.3-- 5---------
1990-12-22 -1.8 -0.2 -5.3 -5.3 87.0- 5.3 4.0---- 0.0-- 6---------
1990-12-23 -4.6 -3.0 -7.2 -9.4 91.3- 7.3 2.0---- 0.0-- 6---------
1990-12-24 -4.4 -1.5 -6.7-10.4 82.0- 0.7 3.0---- 0.0-- 5---------
1990-12-25 -8.2 -3.2-11.3-17.0 88.5- 0.7 2.3---- 0.0-- 5---------
1990-12-26 -7.5 -3.0 -9.8-12.7 93.5- 0.7 1.7---- 0.0-- 5---------
1990-12-27 -2.4 3.2 -7.7 -8.8 79.8- 8.0 3.0---- 0.0-- 5---------
1990-12-28 0.6 2.0 -1.0 -6.0 96.0- 5.3 2.0---- 0.0-- 5---------
1990-12-29 -2.5 1.6 -7.4-11.6 81.5- 7.7 1.7---- 1.0-- 4---------
1990-12-30 3.5 5.5 1.1 0.0 78.3- 5.7 3.7---- 0.0-- 3---------
1990-12-31 2.8 5.7 -0.2 -1.5 89.8- 2.7 1.0---- 0.6------------
1991-01-01 2.2 5.0 -0.8 -2.0 99.5- 7.7 1.3---- 0.0------------
1991-01-02 0.9 5.0 -1.4 -2.9 82.5- 7.3 1.3---- 0.4------------
1991-01-03 5.0 6.5 -0.6 -1.9 84.8- 7.3 5.0---- 2.7------------
1991-01-04 5.4 7.8 3.3 2.1 92.8- 8.0 2.3---- 3.6------------
1991-01-05 3.5 6.1 2.4 0.6 94.0- 8.0 2.7---- 2.0------------
1991-01-06 1.7 4.5 -1.5 -3.3 88.5- 2.0 2.7---- 0.0------------
1991-01-07 3.3 5.5 1.2 -1.1 80.5- 6.7 2.7---- 0.9------------
1991-01-08 4.3 6.8 2.6 0.8 93.0- 4.7 2.0---- 0.0------------
1991-01-09 4.7 9.6 0.3 -1.7 86.5- 0.7 0.7---- 0.1------------
1991-01-10 7.8 10.1 4.3 1.2 79.3- 5.0 5.0---- 0.3------------
1991-01-11 9.1 11.0 8.5 6.0 76.5- 7.7 3.7---- 0.0------------
298.9 ms

 

Źródłem pochodzenia danych jest Instytut Meteorologii i Gospodarki Wodnej – Państwowy Instytut Badawczy. Dane Instytutu Meteorologii i Gospodarki Wodnej – Państwowego Instytutu Badawczego zostały przetworzone.

Dane źródłowe można odnaleźć na stronie https://dane.imgw.pl